createdAt,value
2023-03-22T00:02:58.666Z,14.90
2023-03-22T00:06:01.026Z,16.30
2023-03-22T00:09:03.908Z,13.52
2023-03-22T00:12:06.482Z,12.30
2023-03-22T00:15:11.343Z,11.80
2023-03-22T00:18:14.540Z,15.00
2023-03-22T00:21:17.951Z,12.63
2023-03-22T00:24:21.186Z,11.35
2023-03-22T00:27:23.520Z,11.20
2023-03-22T00:30:25.958Z,10.17
2023-03-22T00:33:32.236Z,13.03
2023-03-22T00:36:34.642Z,11.82
2023-03-22T00:39:37.003Z,12.55
2023-03-22T00:42:40.837Z,11.90
2023-03-22T00:45:43.292Z,11.67
2023-03-22T00:48:46.352Z,12.03
2023-03-22T00:51:48.858Z,12.45
2023-03-22T00:54:51.610Z,12.88
2023-03-22T00:57:54.557Z,13.75
2023-03-22T01:00:56.987Z,9.93
2023-03-22T01:03:59.401Z,13.43
2023-03-22T01:07:07.907Z,9.30
2023-03-22T01:10:12.452Z,10.90
2023-03-22T01:13:16.417Z,9.57
2023-03-22T01:16:20.165Z,10.30
2023-03-22T01:19:27.456Z,11.47
2023-03-22T01:22:29.779Z,11.48
2023-03-22T01:25:32.237Z,11.00
2023-03-22T01:28:34.600Z,14.38
2023-03-22T01:31:36.902Z,12.53
2023-03-22T01:34:39.214Z,13.57
2023-03-22T01:37:42.015Z,11.95
2023-03-22T01:40:44.931Z,17.75
2023-03-22T01:44:14.306Z,13.63
2023-03-22T01:47:16.735Z,13.67
2023-03-22T01:50:19.850Z,15.60
2023-03-22T01:53:25.312Z,14.68
2023-03-22T01:56:32.796Z,14.43
2023-03-22T01:59:35.766Z,17.42
2023-03-22T02:02:53.428Z,13.67
2023-03-22T02:06:02.166Z,15.23
2023-03-22T02:09:06.846Z,11.27
2023-03-22T02:12:34.314Z,14.80
2023-03-22T02:15:56.466Z,16.20
2023-03-22T02:19:29.191Z,14.57
2023-03-22T02:22:58.388Z,14.67
2023-03-22T02:26:28.194Z,16.35
2023-03-22T02:29:45.308Z,13.45
2023-03-22T02:33:08.645Z,13.77
2023-03-22T02:36:14.669Z,13.13
2023-03-22T02:39:26.729Z,16.27
2023-03-22T02:42:43.876Z,13.85
2023-03-22T02:46:08.961Z,12.95
2023-03-22T02:49:37.052Z,14.05
2023-03-22T02:52:43.369Z,15.33
2023-03-22T02:56:15.099Z,17.23
2023-03-22T02:59:18.399Z,17.15
2023-03-22T03:02:22.018Z,17.83
2023-03-22T03:05:25.378Z,14.77
2023-03-22T03:08:28.668Z,15.20
2023-03-22T03:11:32.471Z,16.87
2023-03-22T03:14:35.396Z,16.92
2023-03-22T03:17:44.229Z,16.05
2023-03-22T03:20:54.523Z,22.63
2023-03-22T03:24:21.323Z,17.87
2023-03-22T03:27:29.433Z,15.80
2023-03-22T03:30:40.959Z,14.32
2023-03-22T03:33:57.591Z,15.43
2023-03-22T03:37:39.868Z,17.05
2023-03-22T03:40:46.025Z,16.83
2023-03-22T03:43:49.095Z,19.57
2023-03-22T03:46:52.619Z,21.77
2023-03-22T03:49:54.956Z,17.08
2023-03-22T03:52:57.971Z,18.38
2023-03-22T03:56:00.350Z,16.23
2023-03-22T03:59:09.653Z,18.97
2023-03-22T04:02:12.123Z,14.93
2023-03-22T04:05:14.649Z,16.58
2023-03-22T04:08:17.150Z,17.27
2023-03-22T04:11:20.579Z,19.00
2023-03-22T04:14:27.295Z,18.87
2023-03-22T04:17:32.225Z,15.60
2023-03-22T04:20:36.482Z,16.25
2023-03-22T04:23:38.750Z,15.23
2023-03-22T04:26:41.377Z,14.60
2023-03-22T04:29:51.123Z,15.27
2023-03-22T04:33:15.319Z,16.40
2023-03-22T04:36:53.145Z,15.48
2023-03-22T04:40:16.592Z,15.50
2023-03-22T04:43:34.874Z,16.03
2023-03-22T04:46:39.816Z,17.87
2023-03-22T04:49:42.927Z,16.48
2023-03-22T04:52:48.554Z,25.88
2023-03-22T04:55:50.899Z,20.27
2023-03-22T04:58:54.020Z,20.53
2023-03-22T05:01:56.421Z,18.70
2023-03-22T05:05:01.839Z,20.65
2023-03-22T05:08:14.414Z,17.17
2023-03-22T05:11:20.412Z,17.45
2023-03-22T05:14:35.290Z,19.17
2023-03-22T05:17:38.392Z,17.57
2023-03-22T05:20:42.156Z,17.30
2023-03-22T05:23:52.726Z,19.52
2023-03-22T05:26:55.612Z,16.08
2023-03-22T05:30:02.309Z,21.63
2023-03-22T05:33:21.626Z,17.77
2023-03-22T05:36:29.760Z,22.65
2023-03-22T05:39:55.319Z,19.10
2023-03-22T05:43:04.033Z,20.25
2023-03-22T05:46:11.748Z,17.17
2023-03-22T05:49:26.866Z,18.70
2023-03-22T05:52:30.417Z,17.48
2023-03-22T05:56:02.022Z,17.13
2023-03-22T05:59:07.701Z,18.52
2023-03-22T06:02:10.862Z,15.47
2023-03-22T06:05:14.501Z,18.80
2023-03-22T06:08:17.567Z,24.17
2023-03-22T06:11:22.060Z,17.42
2023-03-22T06:14:25.258Z,20.83
2023-03-22T06:17:47.906Z,21.20
2023-03-22T06:20:55.014Z,21.90
2023-03-22T06:23:58.691Z,20.27
2023-03-22T06:27:01.283Z,17.00
2023-03-22T06:30:04.471Z,18.45
2023-03-22T06:33:13.458Z,22.03
2023-03-22T06:36:25.156Z,25.20
2023-03-22T06:39:41.101Z,22.50
2023-03-22T06:42:44.755Z,23.38
2023-03-22T06:45:50.048Z,27.30
2023-03-22T06:48:57.690Z,18.90
2023-03-22T06:52:00.018Z,20.67
2023-03-22T06:55:02.969Z,19.52
2023-03-22T06:58:05.677Z,17.15
2023-03-22T07:01:08.185Z,19.02
2023-03-22T07:04:11.919Z,11.20
2023-03-22T07:07:14.775Z,9.80
2023-03-22T07:10:20.398Z,11.93
2023-03-22T07:13:25.103Z,14.00
2023-03-22T07:16:32.322Z,11.73
2023-03-22T07:19:37.231Z,10.07
2023-03-22T07:22:43.810Z,12.63
2023-03-22T07:25:47.946Z,9.05
2023-03-22T07:29:11.241Z,7.88
2023-03-22T07:32:14.431Z,7.95
2023-03-22T07:35:36.823Z,7.93
2023-03-22T07:38:40.524Z,8.47
2023-03-22T07:41:48.506Z,9.70
2023-03-22T07:44:59.838Z,10.68
2023-03-22T07:48:02.144Z,9.95
2023-03-22T07:51:23.021Z,11.90
2023-03-22T07:54:33.501Z,13.10
2023-03-22T07:57:38.838Z,13.95
2023-03-22T08:00:41.616Z,8.50
2023-03-22T08:04:02.980Z,8.85
2023-03-22T08:07:18.633Z,11.37
2023-03-22T08:10:21.401Z,11.07
2023-03-22T08:13:24.113Z,9.15
2023-03-22T08:16:26.809Z,9.95
2023-03-22T08:19:31.267Z,9.07
2023-03-22T08:22:35.252Z,9.97
2023-03-22T08:25:56.579Z,12.90
2023-03-22T08:28:59.826Z,12.80
2023-03-22T08:32:05.946Z,11.70
2023-03-22T08:35:09.113Z,9.30
2023-03-22T08:38:11.729Z,8.70
2023-03-22T08:41:21.482Z,12.40
2023-03-22T08:44:23.968Z,9.88
2023-03-22T08:47:26.407Z,14.35
2023-03-22T08:50:35.075Z,9.65
2023-03-22T08:53:48.160Z,10.40
2023-03-22T08:57:10.385Z,11.30
2023-03-22T09:00:26.099Z,14.63
2023-03-22T09:03:41.535Z,11.77
2023-03-22T09:06:47.116Z,14.60
2023-03-22T09:09:50.577Z,10.27
2023-03-22T09:12:53.340Z,10.13
2023-03-22T09:15:55.759Z,12.48
2023-03-22T09:19:02.216Z,15.55
2023-03-22T09:22:04.808Z,16.17
2023-03-22T09:25:15.950Z,15.73
2023-03-22T09:28:22.021Z,12.13
2023-03-22T09:31:24.406Z,16.90
2023-03-22T09:34:38.152Z,11.43
2023-03-22T09:37:42.393Z,12.00
2023-03-22T09:41:00.548Z,8.50
2023-03-22T09:44:08.522Z,14.23
2023-03-22T09:47:43.969Z,14.68
2023-03-22T09:50:50.832Z,12.63
2023-03-22T09:53:53.409Z,11.07
2023-03-22T09:57:05.429Z,18.43
2023-03-22T10:00:47.837Z,12.63
2023-03-22T10:04:05.337Z,14.15
2023-03-22T10:07:22.687Z,10.70
2023-03-22T10:10:26.865Z,13.82
2023-03-22T10:13:38.918Z,9.73
2023-03-22T10:16:41.402Z,11.63
2023-03-22T10:20:28.973Z,10.73
2023-03-22T10:23:49.568Z,13.02
2023-03-22T10:26:52.058Z,10.48
2023-03-22T10:29:59.847Z,12.20
2023-03-22T10:33:04.771Z,13.77
2023-03-22T10:36:11.818Z,11.23
2023-03-22T10:39:32.476Z,14.27
2023-03-22T10:42:36.972Z,16.08
2023-03-22T10:45:40.079Z,14.00
2023-03-22T10:48:44.998Z,19.03
2023-03-22T10:51:49.902Z,15.70
2023-03-22T10:54:52.231Z,17.20
2023-03-22T10:58:13.057Z,18.15
2023-03-22T11:01:24.814Z,18.77
2023-03-22T11:04:31.506Z,14.20
2023-03-22T11:07:33.884Z,13.85
2023-03-22T11:10:36.486Z,13.30
2023-03-22T11:13:38.842Z,13.43
2023-03-22T11:16:44.717Z,15.90
2023-03-22T11:19:56.555Z,15.40
2023-03-22T11:23:02.655Z,20.33
2023-03-22T11:26:11.475Z,12.90
2023-03-22T11:29:18.958Z,11.32
2023-03-22T11:32:21.388Z,14.40
2023-03-22T11:35:28.202Z,11.47
2023-03-22T11:38:30.553Z,10.82
2023-03-22T11:41:36.478Z,14.75
2023-03-22T11:44:44.430Z,18.88
2023-03-22T11:47:46.898Z,14.50
2023-03-22T11:50:49.588Z,13.30
2023-03-22T11:54:09.478Z,13.85
2023-03-22T11:57:17.396Z,13.70
2023-03-22T12:00:28.751Z,13.98
2023-03-22T12:09:51.534Z,15.40
2023-03-22T12:49:42.103Z,15.25
2023-03-22T12:52:50.462Z,14.13
2023-03-22T12:55:53.056Z,19.73
2023-03-22T12:58:59.554Z,13.50
2023-03-22T13:02:17.365Z,16.55
2023-03-22T13:05:19.815Z,13.13
2023-03-22T13:08:23.016Z,17.93
2023-03-22T13:11:25.594Z,11.10
2023-03-22T13:14:53.179Z,14.77
2023-03-22T13:17:56.862Z,9.82
2023-03-22T13:21:14.702Z,11.32
2023-03-22T13:24:16.999Z,13.47
2023-03-22T13:27:19.333Z,12.43
2023-03-22T13:30:24.585Z,11.45
2023-03-22T13:33:32.380Z,9.40
2023-03-22T13:36:37.457Z,8.50
2023-03-22T13:39:40.906Z,7.53
2023-03-22T13:42:43.319Z,11.73
2023-03-22T13:46:01.279Z,5.85
2023-03-22T13:49:04.314Z,9.02
2023-03-22T13:52:08.405Z,7.88
2023-03-22T13:55:41.235Z,9.63
2023-03-22T13:58:46.795Z,5.17
2023-03-22T14:02:07.687Z,8.73
2023-03-22T14:05:16.556Z,7.03
2023-03-22T14:08:25.736Z,6.68
2023-03-22T14:12:06.176Z,7.50
2023-03-22T14:15:09.165Z,7.20
2023-03-22T14:18:11.413Z,5.88
2023-03-22T14:21:18.812Z,9.25
